Northway Airport
PAOR : now visible

Aeroporto :











RITROVATECI SU...

 
LOGIN :

Iscrizione | Disclaimer

   EN    FR    IT 

 









Sommario :    VFR   VFR Marginale   IFR   IFR Intensivo   IFR Molto Intensivo
Visibilità : 
Base nubi : 
>= 8 km
>= 3000ft
5 / 8 km
1000 / 3000 ft
1500m / 5 km
500 / 1000 ft
800 / 1500m
200 / 500 ft
< 800m
< 200 ft
Simboli :   Temporali  Nebbia  Neve Forte  Precipitazioni Forti  Vento > 20 kt






- Altitudine del aeroporto : 1715 ft
- Codice IATA : ORT


PAOR - Northway

ULTIMO METAR :
  • 021153Z 00000KT 10SM BKN065 BKN100 08/06 A2953 RMK AO2 SLP007 60001 70001 T00780056 10117 20072 53003

METARs OBSOLETI :
  • 021053Z 15003KT 10SM BKN060 BKN095 07/06 A2953 RMK AO2 SLP006 T00720056
  • 020953Z 00000KT 10SM BKN060 BKN090 08/06 A2953 RMK AO2 SLP005 T00780056

TAF PAOR
Valido dal 02 a 12 ore il 03 a 12 ore UTC


021124Z 0212/0312 15003KT P6SM BKN060 BKN100
FIR PAZA / America del Nord



MetMap, La meteo Aeronautica in un colpo d'occhio ! - Copyright ORBIFLY Dicembre 2007 - Disclaimer

ORBIFLY MET'MAP TEAM :

Programmazione e sviluppo : Alexandra Zaïnal
Concezione : Baudouin d'Aumeries
Aiuto per la programmazione : Marc-Olivier Méhu
Supporto tecnico e logistico : Manuel Goepfert
Aiuto per la traduzione : Arnaldo La Scala

Contatto : metmap@orbifly.com




FONTI E CREDITI :

   NOAA       Earth
Advisory